DWI276 TNCC-MDSD
Flight info
| Callsign | DWI276 |
|---|---|
| Flight time | N/A |
| Altitude | 37000 |
| Route | KARUM1K KARUM UT17 DULSI DCT AVRES |
| Aircraft | B38M/M-SDE1FGHILORVWXY/HB1 |
Departure
| Time | 2026-05-07 00:50 |
|---|---|
| Airport | Hato International Airport (TNCC) |
Arrival
| Time | N/A |
|---|---|
| Airport | Las Américas International Airport (MDSD) |
| Time | Latitude | Longitude | Altitude | Speed | Heading |
|---|---|---|---|---|---|
| 2026-05-07 00:49 | 12.19206 | -68.97473 | 42 ft | 0 kts | 102° |
| 2026-05-07 00:49 | 12.19199 | -68.97439 | 42 ft | 12 kts | 102° |
| 2026-05-07 00:49 | 12.19128 | -68.97084 | 42 ft | 92 kts | 103° |
| 2026-05-07 00:49 | 12.18965 | -68.96202 | 95 ft | 154 kts | 98° |
| 2026-05-07 00:50 | 12.18759 | -68.95068 | 833 ft | 161 kts | 99° |
| 2026-05-07 00:50 | 12.18536 | -68.93998 | 1792 ft | 158 kts | 101° |
| 2026-05-07 00:50 | 12.18267 | -68.92817 | 2082 ft | 184 kts | 101° |
| 2026-05-07 00:50 | 12.17963 | -68.91451 | 2490 ft | 208 kts | 102° |
| 2026-05-07 00:51 | 12.17640 | -68.89956 | 2942 ft | 228 kts | 99° |
| 2026-05-07 00:51 | 12.17672 | -68.88282 | 3449 ft | 247 kts | 73° |
| 2026-05-07 00:51 | 12.18683 | -68.86841 | 4167 ft | 261 kts | 39° |
| 2026-05-07 00:51 | 12.20416 | -68.86130 | 4906 ft | 277 kts | 16° |
| 2026-05-07 00:52 | 12.22311 | -68.85583 | 5519 ft | 287 kts | 21° |
| 2026-05-07 00:52 | 12.24230 | -68.84972 | 6304 ft | 292 kts | 20° |
| 2026-05-07 00:52 | 12.26192 | -68.84347 | 6963 ft | 298 kts | 20° |
| 2026-05-07 00:52 | 12.28178 | -68.83716 | 7779 ft | 298 kts | 20° |
| 2026-05-07 00:53 | 12.30173 | -68.83083 | 8500 ft | 302 kts | 20° |
| 2026-05-07 00:53 | 12.32160 | -68.82453 | 9244 ft | 303 kts | 20° |
| 2026-05-07 00:53 | 12.34186 | -68.81812 | 9954 ft | 306 kts | 20° |
| 2026-05-07 00:53 | 12.36251 | -68.81153 | 10372 ft | 318 kts | 21° |
| 2026-05-07 00:54 | 12.38426 | -68.80452 | 10612 ft | 335 kts | 21° |
| 2026-05-07 00:54 | 12.40687 | -68.79725 | 11033 ft | 343 kts | 21° |
| 2026-05-07 00:54 | 12.42971 | -68.78999 | 11726 ft | 342 kts | 20° |
| 2026-05-07 00:54 | 12.45248 | -68.78279 | 12348 ft | 343 kts | 21° |
| 2026-05-07 00:55 | 12.47512 | -68.77563 | 12965 ft | 344 kts | 21° |
| 2026-05-07 00:55 | 12.49801 | -68.76841 | 13558 ft | 345 kts | 20° |
| 2026-05-07 00:55 | 12.52102 | -68.76114 | 14101 ft | 346 kts | 20° |
| 2026-05-07 00:55 | 12.54410 | -68.75386 | 14610 ft | 347 kts | 20° |
| 2026-05-07 00:56 | 12.56717 | -68.74657 | 15111 ft | 347 kts | 20° |
| 2026-05-07 00:56 | 12.59035 | -68.73925 | 15598 ft | 348 kts | 19° |
| 2026-05-07 00:56 | 12.61352 | -68.73193 | 16063 ft | 349 kts | 19° |
| 2026-05-07 00:56 | 12.63675 | -68.72460 | 16513 ft | 350 kts | 19° |
| 2026-05-07 00:57 | 12.66080 | -68.72029 | 16955 ft | 354 kts | 2° |
| 2026-05-07 00:57 | 12.68362 | -68.72308 | 17377 ft | 357 kts | 353° |
| 2026-05-07 00:57 | 12.70817 | -68.72749 | 17772 ft | 359 kts | 352° |
| 2026-05-07 00:57 | 12.73279 | -68.73216 | 18193 ft | 360 kts | 352° |
| 2026-05-07 00:58 | 12.75745 | -68.73698 | 18541 ft | 361 kts | 351° |
| 2026-05-07 00:58 | 12.78224 | -68.74191 | 18866 ft | 363 kts | 351° |
| 2026-05-07 00:58 | 12.80712 | -68.74688 | 19171 ft | 365 kts | 351° |
| 2026-05-07 00:58 | 12.83209 | -68.75189 | 19486 ft | 366 kts | 351° |
| 2026-05-07 00:59 | 12.88226 | -68.76200 | 20074 ft | 369 kts | 351° |
| 2026-05-07 00:59 | 12.90748 | -68.76709 | 20349 ft | 371 kts | 351° |
| 2026-05-07 00:59 | 12.93287 | -68.77221 | 20630 ft | 372 kts | 351° |
| 2026-05-07 01:00 | 12.95829 | -68.77734 | 20909 ft | 373 kts | 351° |
| 2026-05-07 01:00 | 12.98383 | -68.78250 | 21173 ft | 375 kts | 351° |
| 2026-05-07 01:00 | 13.00946 | -68.78768 | 21429 ft | 376 kts | 351° |
| 2026-05-07 01:00 | 13.03508 | -68.79286 | 21686 ft | 377 kts | 350° |
| 2026-05-07 01:01 | 13.04386 | -68.79463 | 21757 ft | 378 kts | 350° |
| 2026-05-07 01:02 | 13.24172 | -68.83465 | 23490 ft | 387 kts | 350° |
| 2026-05-07 01:03 | 13.26824 | -68.84002 | 23664 ft | 389 kts | 350° |
| 2026-05-07 01:03 | 13.29463 | -68.84537 | 23824 ft | 390 kts | 350° |
| 2026-05-07 01:03 | 13.32123 | -68.85075 | 23985 ft | 391 kts | 350° |
| 2026-05-07 01:03 | 13.34797 | -68.85617 | 24148 ft | 392 kts | 348° |
| 2026-05-07 01:04 | 13.37485 | -68.86166 | 24298 ft | 393 kts | 349° |
| 2026-05-07 01:04 | 13.40174 | -68.86709 | 24447 ft | 394 kts | 349° |
| 2026-05-07 01:04 | 13.42869 | -68.87254 | 24597 ft | 395 kts | 349° |
| 2026-05-07 01:04 | 13.45567 | -68.87801 | 24751 ft | 396 kts | 349° |
| 2026-05-07 01:05 | 13.48245 | -68.88344 | 24893 ft | 397 kts | 349° |
| 2026-05-07 01:05 | 13.50967 | -68.88896 | 25025 ft | 398 kts | 349° |
| 2026-05-07 01:05 | 13.53684 | -68.89447 | 25156 ft | 399 kts | 349° |
| 2026-05-07 01:05 | 13.56419 | -68.90002 | 25293 ft | 400 kts | 349° |
| 2026-05-07 01:06 | 13.59149 | -68.90556 | 25423 ft | 401 kts | 349° |
| 2026-05-07 01:06 | 13.61888 | -68.91112 | 25557 ft | 401 kts | 349° |
| 2026-05-07 01:06 | 13.64604 | -68.91664 | 25664 ft | 402 kts | 349° |
| 2026-05-07 01:06 | 13.67359 | -68.92224 | 25775 ft | 404 kts | 349° |
| 2026-05-07 01:07 | 13.70121 | -68.92785 | 25892 ft | 404 kts | 349° |
| 2026-05-07 01:07 | 13.72882 | -68.93346 | 26008 ft | 405 kts | 348° |
| 2026-05-07 01:07 | 13.75647 | -68.93908 | 26123 ft | 406 kts | 348° |
| 2026-05-07 01:07 | 13.78425 | -68.94473 | 26235 ft | 407 kts | 348° |
| 2026-05-07 01:08 | 13.81203 | -68.95038 | 26337 ft | 408 kts | 348° |
| 2026-05-07 01:08 | 13.83987 | -68.95605 | 26446 ft | 408 kts | 348° |
| 2026-05-07 01:08 | 13.86790 | -68.96175 | 26546 ft | 409 kts | 348° |
| 2026-05-07 01:08 | 13.89553 | -68.96737 | 26642 ft | 410 kts | 348° |
| 2026-05-07 01:09 | 13.92361 | -68.97309 | 26734 ft | 411 kts | 348° |
| 2026-05-07 01:09 | 13.95169 | -68.97881 | 26841 ft | 411 kts | 348° |
| 2026-05-07 01:09 | 13.97980 | -68.98454 | 26929 ft | 412 kts | 348° |
| 2026-05-07 01:09 | 14.00800 | -68.99028 | 27032 ft | 413 kts | 348° |
| 2026-05-07 01:10 | 14.03626 | -68.99604 | 27101 ft | 414 kts | 348° |
| 2026-05-07 01:10 | 14.06453 | -69.00181 | 27190 ft | 414 kts | 348° |
| 2026-05-07 01:10 | 14.09285 | -69.00758 | 27285 ft | 415 kts | 348° |
| 2026-05-07 01:10 | 14.12114 | -69.01335 | 27369 ft | 415 kts | 348° |
| 2026-05-07 01:11 | 14.14923 | -69.01908 | 27639 ft | 417 kts | 348° |
| 2026-05-07 01:11 | 14.17775 | -69.02490 | 28053 ft | 419 kts | 348° |
| 2026-05-07 01:11 | 14.20644 | -69.03076 | 28404 ft | 422 kts | 348° |
| 2026-05-07 01:11 | 14.23531 | -69.03665 | 28778 ft | 424 kts | 348° |
| 2026-05-07 01:12 | 14.26437 | -69.04259 | 29117 ft | 427 kts | 348° |
| 2026-05-07 01:12 | 14.29365 | -69.04857 | 29461 ft | 430 kts | 347° |
| 2026-05-07 01:12 | 14.32310 | -69.05459 | 29805 ft | 432 kts | 347° |
| 2026-05-07 01:12 | 14.35268 | -69.06063 | 30140 ft | 435 kts | 347° |
| 2026-05-07 01:13 | 14.38248 | -69.06672 | 30429 ft | 437 kts | 347° |
| 2026-05-07 01:13 | 14.41239 | -69.07284 | 30694 ft | 440 kts | 347° |
| 2026-05-07 01:13 | 14.44247 | -69.07899 | 30965 ft | 442 kts | 347° |
| 2026-05-07 01:13 | 14.47273 | -69.08519 | 31228 ft | 445 kts | 347° |
| 2026-05-07 01:14 | 14.50317 | -69.09142 | 31488 ft | 447 kts | 347° |
| 2026-05-07 01:14 | 14.53381 | -69.09769 | 31744 ft | 450 kts | 347° |
| 2026-05-07 01:14 | 14.56462 | -69.10400 | 31997 ft | 452 kts | 347° |
| 2026-05-07 01:14 | 14.59555 | -69.11033 | 32247 ft | 455 kts | 347° |
| 2026-05-07 01:15 | 14.62678 | -69.11673 | 32498 ft | 457 kts | 347° |
| 2026-05-07 01:15 | 14.65773 | -69.12308 | 32734 ft | 460 kts | 347° |
| 2026-05-07 01:15 | 14.68922 | -69.12953 | 32979 ft | 462 kts | 346° |
| 2026-05-07 01:15 | 14.72077 | -69.13600 | 33283 ft | 463 kts | 346° |
| 2026-05-07 01:16 | 14.75244 | -69.14250 | 33604 ft | 463 kts | 346° |
| 2026-05-07 01:16 | 14.78403 | -69.14898 | 33919 ft | 464 kts | 346° |
| 2026-05-07 01:16 | 14.81570 | -69.15548 | 34194 ft | 464 kts | 346° |
| 2026-05-07 01:16 | 14.84742 | -69.16199 | 34497 ft | 464 kts | 346° |
| 2026-05-07 01:17 | 14.87900 | -69.16848 | 34850 ft | 462 kts | 346° |
| 2026-05-07 01:17 | 14.91015 | -69.17488 | 35194 ft | 460 kts | 346° |
| 2026-05-07 01:17 | 14.94161 | -69.18134 | 35545 ft | 458 kts | 346° |
| 2026-05-07 01:17 | 14.97285 | -69.18776 | 35881 ft | 457 kts | 346° |
| 2026-05-07 01:18 | 15.00400 | -69.19417 | 36211 ft | 455 kts | 346° |
| 2026-05-07 01:18 | 15.03503 | -69.20055 | 36539 ft | 454 kts | 346° |
| 2026-05-07 01:18 | 15.06597 | -69.20692 | 36867 ft | 452 kts | 346° |
| 2026-05-07 01:18 | 15.09653 | -69.21321 | 37038 ft | 454 kts | 346° |
| 2026-05-07 01:19 | 15.12766 | -69.21962 | 37038 ft | 458 kts | 346° |
| 2026-05-07 01:19 | 15.19062 | -69.23258 | 37033 ft | 463 kts | 346° |
| 2026-05-07 01:20 | 15.25399 | -69.24564 | 37035 ft | 460 kts | 346° |
| 2026-05-07 01:20 | 15.31585 | -69.25840 | 37039 ft | 448 kts | 346° |
| 2026-05-07 01:21 | 15.37646 | -69.27090 | 37031 ft | 446 kts | 346° |
| 2026-05-07 01:21 | 15.43756 | -69.28352 | 37040 ft | 446 kts | 346° |
| 2026-05-07 01:22 | 15.49838 | -69.29608 | 37039 ft | 446 kts | 346° |
| 2026-05-07 01:22 | 15.55922 | -69.30866 | 37037 ft | 445 kts | 346° |
| 2026-05-07 01:23 | 15.62003 | -69.32123 | 37036 ft | 445 kts | 346° |
| 2026-05-07 01:23 | 15.68041 | -69.33373 | 37043 ft | 444 kts | 346° |
| 2026-05-07 01:24 | 15.74091 | -69.34626 | 37042 ft | 443 kts | 347° |
| 2026-05-07 01:24 | 15.80155 | -69.35854 | 37039 ft | 443 kts | 351° |
| 2026-05-07 01:25 | 15.86338 | -69.35770 | 37045 ft | 446 kts | 1° |
| 2026-05-07 01:25 | 15.91487 | -69.35494 | 37042 ft | 445 kts | 360° |
| 2026-05-07 01:26 | 15.98684 | -69.35134 | 37055 ft | 444 kts | 0° |
| 2026-05-07 01:26 | 16.04846 | -69.35015 | 37050 ft | 442 kts | 359° |
| 2026-05-07 01:27 | 16.09953 | -69.34912 | 37050 ft | 442 kts | 359° |
| 2026-05-07 01:27 | 16.16093 | -69.34786 | 37053 ft | 440 kts | 359° |
| 2026-05-07 01:28 | 16.22214 | -69.34660 | 37052 ft | 439 kts | 359° |
| 2026-05-07 01:28 | 16.28323 | -69.34534 | 37050 ft | 438 kts | 360° |
| 2026-05-07 01:29 | 16.29357 | -69.34513 | 37051 ft | 438 kts | 360° |